Claycomo, Missouri
Current Conditions -  °F | °C
As of 9:54 PM on Saturday 24 Jan 2015 (Local Time) from KMKC Reporting Station
Light Rain Light Rain  
Wind Chill: 50°   Ceiling: 5000
Heat Index: 50°   Visibility: 10mi
Dew Point: 41°   Wind: 14mph
Humidity: 71%   Direction: 270°W
Pressure: 29.72"   Gusts: 20mph
Location:  39.2065°N, 94.5176°W
Report Text: KMKC 250354Z 27012G17KT 10SM -RA OVC050 10/05 A2972 RMK AO2 RAB09 SLP066 P0000 T01000050
Loading
Personal Weather Stations






























Interactive Weather Map New forecast layout! Learn more

10-Day Weather Forecast

Advertisements
Track Severe Weather on mobile